createdAt,value
2023-03-19T00:00:28.295Z,4.15
2023-03-19T00:02:55.242Z,4.38
2023-03-19T00:05:22.642Z,4.90
2023-03-19T00:07:49.322Z,4.93
2023-03-19T00:10:16.099Z,4.40
2023-03-19T00:12:42.989Z,4.28
2023-03-19T00:15:14.791Z,3.92
2023-03-19T00:17:44.690Z,3.92
2023-03-19T00:20:12.992Z,4.50
2023-03-19T00:22:40.485Z,4.35
2023-03-19T00:25:08.681Z,4.75
2023-03-19T00:27:37.397Z,5.05
2023-03-19T00:30:06.567Z,4.97
2023-03-19T00:32:34.155Z,4.97
2023-03-19T00:35:01.339Z,5.43
2023-03-19T00:37:28.610Z,4.68
2023-03-19T00:39:56.292Z,4.35
2023-03-19T00:42:23.469Z,4.95
2023-03-19T00:44:51.138Z,4.72
2023-03-19T00:47:18.161Z,4.07
2023-03-19T00:49:45.499Z,4.85
2023-03-19T00:52:12.286Z,4.75
2023-03-19T00:54:40.690Z,4.50
2023-03-19T00:57:08.558Z,3.95
2023-03-19T00:59:35.552Z,3.90
2023-03-19T01:02:03.011Z,3.60
2023-03-19T01:04:29.758Z,4.18
2023-03-19T01:09:26.782Z,3.85
2023-03-19T01:11:53.905Z,4.28
2023-03-19T01:14:21.331Z,3.80
2023-03-19T01:16:48.514Z,3.88
2023-03-19T01:19:16.541Z,4.10
2023-03-19T01:21:46.466Z,3.17
2023-03-19T01:24:17.495Z,4.28
2023-03-19T01:26:46.452Z,4.10
2023-03-19T01:29:26.025Z,4.63
2023-03-19T01:31:54.861Z,4.90
2023-03-19T01:34:47.047Z,5.22
2023-03-19T01:37:17.639Z,4.80
2023-03-19T01:39:45.546Z,4.30
2023-03-19T01:42:14.877Z,5.68
2023-03-19T01:44:51.327Z,5.43
2023-03-19T01:47:41.892Z,4.43
2023-03-19T01:50:44.313Z,3.85
2023-03-19T01:53:36.814Z,4.13
2023-03-19T01:56:27.562Z,4.38
2023-03-19T01:59:33.260Z,3.60
2023-03-19T02:02:31.223Z,3.75
2023-03-19T02:05:12.404Z,4.20
2023-03-19T02:07:42.701Z,3.55
2023-03-19T02:10:21.173Z,4.72
2023-03-19T02:12:49.274Z,3.53
2023-03-19T02:15:16.806Z,4.35
2023-03-19T02:17:52.667Z,2.95
2023-03-19T02:20:35.704Z,3.38
2023-03-19T02:23:17.629Z,2.88
2023-03-19T02:25:47.998Z,4.28
2023-03-19T02:28:19.341Z,4.30
2023-03-19T02:30:49.067Z,4.57
2023-03-19T02:33:20.888Z,3.65
2023-03-19T02:35:55.612Z,3.45
2023-03-19T02:41:04.828Z,3.47
2023-03-19T02:43:34.433Z,3.25
2023-03-19T02:46:03.458Z,3.33
2023-03-19T02:48:31.800Z,3.70
2023-03-19T02:50:59.981Z,3.40
2023-03-19T02:53:27.446Z,3.28
2023-03-19T02:55:57.934Z,3.53
2023-03-19T02:58:32.773Z,4.25
2023-03-19T03:01:07.598Z,3.58
2023-03-19T03:03:38.028Z,3.42
2023-03-19T03:06:16.951Z,3.92
2023-03-19T03:08:44.833Z,3.97
2023-03-19T03:11:12.137Z,5.72
2023-03-19T03:13:42.229Z,4.80
2023-03-19T03:16:10.102Z,6.35
2023-03-19T03:18:37.851Z,4.13
2023-03-19T03:21:05.238Z,6.05
2023-03-19T03:23:33.159Z,3.78
2023-03-19T03:26:00.208Z,3.33
2023-03-19T03:28:30.175Z,3.33
2023-03-19T03:31:09.752Z,3.17
2023-03-19T03:33:42.964Z,3.00
2023-03-19T03:36:10.830Z,3.35
2023-03-19T03:38:41.438Z,3.72
2023-03-19T03:41:13.866Z,3.00
2023-03-19T03:43:41.217Z,3.00
2023-03-19T03:46:08.831Z,3.15
2023-03-19T03:48:36.558Z,3.08
2023-03-19T03:51:04.529Z,3.42
2023-03-19T03:53:33.156Z,3.28
2023-03-19T03:56:02.662Z,3.28
2023-03-19T03:58:34.733Z,3.60
2023-03-19T04:01:02.030Z,4.55
2023-03-19T04:03:31.976Z,3.80
2023-03-19T04:08:26.593Z,2.97
2023-03-19T04:10:53.647Z,3.20
2023-03-19T04:13:21.036Z,2.90
2023-03-19T04:15:48.680Z,2.78
2023-03-19T04:18:16.620Z,3.00
2023-03-19T04:20:43.603Z,2.83
2023-03-19T04:23:11.165Z,2.55
2023-03-19T04:25:41.667Z,3.47
2023-03-19T04:28:12.518Z,2.92
2023-03-19T04:30:39.685Z,3.30
2023-03-19T04:33:07.320Z,3.03
2023-03-19T04:35:34.376Z,3.20
2023-03-19T04:38:01.529Z,2.72
2023-03-19T04:40:28.834Z,2.72
2023-03-19T04:42:56.448Z,2.83
2023-03-19T04:45:32.352Z,3.33
2023-03-19T04:48:00.142Z,2.88
2023-03-19T04:50:28.216Z,2.92
2023-03-19T04:52:56.137Z,3.85
2023-03-19T04:55:24.723Z,4.20
2023-03-19T04:58:01.367Z,3.22
2023-03-19T05:03:02.022Z,2.80
2023-03-19T05:05:31.504Z,2.63
2023-03-19T05:08:02.162Z,2.40
2023-03-19T05:10:34.309Z,3.05
2023-03-19T05:13:02.317Z,2.55
2023-03-19T05:15:30.492Z,2.45
2023-03-19T05:18:02.052Z,3.20
2023-03-19T05:20:38.093Z,2.88
2023-03-19T05:23:12.096Z,2.75
2023-03-19T05:25:47.781Z,3.10
2023-03-19T05:28:20.537Z,2.78
2023-03-19T05:30:52.603Z,2.80
2023-03-19T05:33:28.024Z,2.42
2023-03-19T05:35:57.806Z,2.40
2023-03-19T05:38:34.823Z,2.72
2023-03-19T05:41:08.227Z,2.63
2023-03-19T05:43:54.371Z,2.33
2023-03-19T05:46:42.348Z,2.60
2023-03-19T05:49:10.664Z,2.45
2023-03-19T05:51:40.578Z,2.30
2023-03-19T05:54:10.565Z,2.60
2023-03-19T05:56:58.038Z,2.83
2023-03-19T05:59:57.992Z,2.72
2023-03-19T06:02:39.459Z,2.78
2023-03-19T06:05:26.417Z,2.42
2023-03-19T06:07:57.666Z,3.70
2023-03-19T06:10:35.947Z,2.35
2023-03-19T06:13:07.803Z,2.72
2023-03-19T06:15:58.266Z,2.38
2023-03-19T06:18:32.323Z,2.60
2023-03-19T06:21:03.818Z,2.80
2023-03-19T06:23:31.127Z,2.75
2023-03-19T06:25:59.893Z,2.67
2023-03-19T06:28:30.835Z,2.78
2023-03-19T06:30:57.945Z,2.97
2023-03-19T06:33:47.875Z,2.90
2023-03-19T06:36:15.342Z,3.00
2023-03-19T06:38:43.011Z,2.58
2023-03-19T06:41:16.613Z,2.60
2023-03-19T06:43:44.105Z,2.47
2023-03-19T06:46:11.927Z,2.97
2023-03-19T06:48:39.094Z,2.33
2023-03-19T06:51:07.028Z,4.50
2023-03-19T06:53:35.021Z,3.00
2023-03-19T06:56:01.935Z,4.03
2023-03-19T06:58:28.761Z,3.58
2023-03-19T07:00:56.963Z,3.90
2023-03-19T07:03:24.498Z,2.90
2023-03-19T07:05:52.871Z,4.38
2023-03-19T07:08:20.220Z,5.70
2023-03-19T07:10:47.232Z,4.25
2023-03-19T07:13:14.655Z,3.92
2023-03-19T07:15:44.968Z,4.20
2023-03-19T07:18:12.542Z,3.70
2023-03-19T07:20:39.607Z,3.88
2023-03-19T07:23:09.724Z,8.88
2023-03-19T07:25:39.410Z,3.90
2023-03-19T07:28:07.165Z,3.20
2023-03-19T07:30:38.661Z,2.65
2023-03-19T07:33:08.112Z,2.40
2023-03-19T07:38:02.971Z,2.25
2023-03-19T07:40:30.230Z,3.20
2023-03-19T07:42:58.918Z,2.42
2023-03-19T07:45:26.030Z,2.60
2023-03-19T07:47:53.426Z,3.05
2023-03-19T07:50:20.734Z,2.28
2023-03-19T07:52:48.359Z,3.85
2023-03-19T07:55:18.601Z,2.92
2023-03-19T07:57:45.573Z,3.63
2023-03-19T08:00:13.135Z,2.63
2023-03-19T08:02:40.618Z,2.90
2023-03-19T08:05:08.084Z,2.20
2023-03-19T08:07:35.373Z,2.78
2023-03-19T08:10:04.102Z,2.38
2023-03-19T08:12:32.238Z,2.20
2023-03-19T08:14:59.442Z,3.10
2023-03-19T08:17:27.807Z,2.38
2023-03-19T08:19:55.100Z,3.03
2023-03-19T08:22:22.140Z,3.70
2023-03-19T08:24:48.859Z,3.08
2023-03-19T08:27:16.101Z,1.98
2023-03-19T08:29:43.276Z,2.97
2023-03-19T08:32:10.333Z,2.50
2023-03-19T08:34:37.333Z,1.95
2023-03-19T08:37:04.596Z,3.42
2023-03-19T08:39:31.722Z,2.58
2023-03-19T08:41:58.536Z,2.20
2023-03-19T08:44:26.012Z,2.30
2023-03-19T08:46:53.333Z,2.30
2023-03-19T08:49:20.252Z,1.92
2023-03-19T08:51:47.214Z,2.10
2023-03-19T08:54:14.440Z,2.50
2023-03-19T08:56:41.736Z,2.78
2023-03-19T08:59:08.871Z,2.53
2023-03-19T09:01:36.810Z,2.20
2023-03-19T09:04:04.181Z,1.95
2023-03-19T09:06:31.300Z,1.98
2023-03-19T09:08:58.203Z,2.47
2023-03-19T09:11:25.065Z,1.75
2023-03-19T09:13:52.206Z,1.13
2023-03-19T09:16:19.157Z,2.50
2023-03-19T09:18:46.242Z,2.38
2023-03-19T09:21:13.270Z,1.75
2023-03-19T09:23:40.521Z,1.50
2023-03-19T09:26:09.980Z,2.10
2023-03-19T09:28:38.149Z,2.10
2023-03-19T09:31:07.508Z,2.00
2023-03-19T09:33:34.399Z,1.55
2023-03-19T09:36:05.293Z,2.20
2023-03-19T09:38:32.507Z,1.13
2023-03-19T09:41:11.633Z,1.08
2023-03-19T09:44:13.106Z,1.30
2023-03-19T09:47:03.308Z,1.70
2023-03-19T09:49:34.074Z,2.00
2023-03-19T09:52:20.500Z,1.77
2023-03-19T09:54:53.272Z,1.77
2023-03-19T09:57:20.993Z,1.25
2023-03-19T09:59:48.381Z,0.75
2023-03-19T10:02:33.233Z,1.58
2023-03-19T10:05:18.738Z,2.03
2023-03-19T10:08:17.222Z,1.52
2023-03-19T10:11:29.754Z,1.30
2023-03-19T10:14:36.186Z,1.30
2023-03-19T10:17:07.399Z,1.60
2023-03-19T10:19:43.648Z,0.95
2023-03-19T10:22:22.443Z,1.42
2023-03-19T10:24:50.782Z,1.15
2023-03-19T10:27:20.590Z,0.80
2023-03-19T10:29:51.279Z,2.15
2023-03-19T10:32:21.323Z,1.50
2023-03-19T10:34:51.039Z,1.23
2023-03-19T10:37:22.320Z,1.15
2023-03-19T10:39:51.517Z,1.95
2023-03-19T10:42:46.956Z,1.42
2023-03-19T10:45:38.957Z,1.33
2023-03-19T10:48:12.177Z,1.25
2023-03-19T10:50:46.053Z,1.75
2023-03-19T10:53:15.776Z,1.10
2023-03-19T10:56:07.592Z,1.95
2023-03-19T10:58:38.202Z,1.23
2023-03-19T11:01:11.206Z,1.38
2023-03-19T11:03:51.047Z,1.02
2023-03-19T11:06:18.389Z,1.10
2023-03-19T11:08:59.072Z,1.83
2023-03-19T11:11:58.093Z,1.25
2023-03-19T11:14:32.145Z,1.00
2023-03-19T11:17:07.144Z,1.10
2023-03-19T11:19:41.224Z,0.85
2023-03-19T11:22:23.020Z,1.00
2023-03-19T11:24:54.394Z,0.70
2023-03-19T11:27:35.060Z,0.55
2023-03-19T11:30:13.057Z,1.10
2023-03-19T11:32:58.391Z,0.90
2023-03-19T11:35:51.024Z,2.22
2023-03-19T11:38:42.386Z,0.95
2023-03-19T11:41:18.607Z,1.10
2023-03-19T11:44:31.625Z,1.02
2023-03-19T11:47:26.233Z,2.55
2023-03-19T11:50:05.864Z,1.23
2023-03-19T11:52:48.860Z,0.80
2023-03-19T11:55:28.117Z,2.63
2023-03-19T11:58:30.758Z,0.80
2023-03-19T12:01:02.140Z,1.73
2023-03-19T12:03:48.470Z,1.70
2023-03-19T12:06:57.265Z,1.98
2023-03-19T12:09:27.224Z,1.60
2023-03-19T12:12:07.753Z,1.00
2023-03-19T12:15:08.756Z,1.25
2023-03-19T12:17:59.429Z,1.05
2023-03-19T12:20:55.919Z,0.90
2023-03-19T12:23:58.047Z,1.48
2023-03-19T12:27:15.894Z,0.80
2023-03-19T12:30:14.864Z,2.08
2023-03-19T12:33:07.644Z,1.30
2023-03-19T12:35:36.800Z,0.95
2023-03-19T12:38:18.007Z,1.13
2023-03-19T12:40:50.444Z,1.33
2023-03-19T12:43:25.576Z,1.60
2023-03-19T12:46:03.533Z,1.20
2023-03-19T12:48:44.599Z,1.00
2023-03-19T12:51:16.072Z,1.35
2023-03-19T12:54:06.193Z,1.52
2023-03-19T12:56:49.636Z,1.33
2023-03-19T12:59:51.903Z,1.20
2023-03-19T13:02:52.183Z,1.17
2023-03-19T13:05:36.434Z,0.50
2023-03-19T13:08:51.291Z,0.77
2023-03-19T13:11:28.655Z,1.23
2023-03-19T13:14:02.214Z,0.80
2023-03-19T13:16:57.145Z,1.73
2023-03-19T13:19:42.987Z,1.50
2023-03-19T13:22:42.898Z,1.40
2023-03-19T13:29:56.773Z,1.30
2023-03-19T13:32:27.416Z,1.08
2023-03-19T13:35:39.878Z,1.10
2023-03-19T13:38:36.996Z,2.55
2023-03-19T13:41:04.536Z,0.80
2023-03-19T13:43:37.405Z,1.50
2023-03-19T13:46:13.465Z,1.67
2023-03-19T13:48:46.343Z,1.25
2023-03-19T13:51:12.911Z,1.10
2023-03-19T13:53:54.670Z,1.77
2023-03-19T13:56:29.868Z,0.88
2023-03-19T13:59:15.599Z,1.33
2023-03-19T14:01:47.427Z,1.45
2023-03-19T14:04:19.787Z,1.33
2023-03-19T14:06:59.210Z,1.17
2023-03-19T14:09:45.859Z,1.50
2023-03-19T14:12:16.153Z,2.10
2023-03-19T14:14:57.210Z,2.13
2023-03-19T14:17:51.707Z,2.00
2023-03-19T14:20:24.036Z,1.52
2023-03-19T14:22:58.312Z,1.10
2023-03-19T14:25:30.941Z,1.20
2023-03-19T14:28:02.235Z,1.30
2023-03-19T14:30:45.521Z,1.67
2023-03-19T14:33:26.503Z,1.55
2023-03-19T14:35:53.893Z,2.08
2023-03-19T14:38:32.352Z,1.83
2023-03-19T14:41:02.457Z,2.03
2023-03-19T14:43:41.770Z,1.60
2023-03-19T14:46:37.618Z,1.00
2023-03-19T14:49:44.424Z,1.48
2023-03-19T14:52:25.489Z,1.60
2023-03-19T14:55:03.336Z,2.40
2023-03-19T14:57:33.302Z,1.92
2023-03-19T15:00:03.038Z,2.85
2023-03-19T15:05:09.872Z,2.47
2023-03-19T15:07:44.310Z,2.70
2023-03-19T15:10:19.004Z,1.92
2023-03-19T15:13:01.333Z,1.65
2023-03-19T15:15:37.923Z,2.15
2023-03-19T15:18:09.843Z,1.67
2023-03-19T15:20:48.402Z,1.50
2023-03-19T15:23:27.444Z,0.88
2023-03-19T15:25:58.211Z,1.95
2023-03-19T15:28:28.215Z,1.13
2023-03-19T15:31:12.523Z,1.10
2023-03-19T15:33:46.444Z,1.58
2023-03-19T15:36:27.597Z,1.27
2023-03-19T15:39:10.941Z,3.55
2023-03-19T15:41:44.618Z,1.88
2023-03-19T15:44:18.648Z,1.55
2023-03-19T15:46:47.109Z,2.10
2023-03-19T15:49:21.161Z,2.20
2023-03-19T15:51:53.371Z,1.98
2023-03-19T15:54:21.342Z,1.40
2023-03-19T15:56:53.216Z,1.15
2023-03-19T15:59:25.092Z,1.52
2023-03-19T16:01:51.908Z,1.30
2023-03-19T16:04:23.383Z,1.30
2023-03-19T16:06:52.346Z,1.63
2023-03-19T16:09:48.622Z,1.40
2023-03-19T16:12:41.417Z,2.42
2023-03-19T16:15:34.051Z,1.83
2023-03-19T16:18:19.436Z,4.43
2023-03-19T16:21:07.660Z,2.20
2023-03-19T16:23:45.914Z,2.25
2023-03-19T16:26:18.644Z,1.40
2023-03-19T16:28:52.408Z,1.20
2023-03-19T16:31:22.384Z,1.42
2023-03-19T16:33:53.329Z,1.58
2023-03-19T16:36:20.935Z,1.17
2023-03-19T16:39:16.455Z,1.05
2023-03-19T16:41:45.994Z,0.98
2023-03-19T16:44:17.176Z,1.63
2023-03-19T16:46:44.972Z,1.65
2023-03-19T16:49:11.607Z,1.15
2023-03-19T16:51:39.354Z,1.40
2023-03-19T16:54:06.474Z,1.13
2023-03-19T16:56:33.661Z,1.20
2023-03-19T16:59:03.393Z,0.98
2023-03-19T17:01:31.153Z,0.90
2023-03-19T17:03:58.938Z,1.90
2023-03-19T17:06:29.450Z,0.70
2023-03-19T17:08:56.119Z,1.20
2023-03-19T17:11:27.760Z,1.25
2023-03-19T17:14:06.379Z,1.25
2023-03-19T17:16:33.975Z,1.35
2023-03-19T17:19:01.147Z,1.55
2023-03-19T17:21:31.500Z,1.85
2023-03-19T17:24:02.318Z,3.25
2023-03-19T17:26:29.241Z,2.25
2023-03-19T17:28:57.017Z,1.48
2023-03-19T17:31:25.477Z,3.35
2023-03-19T17:33:57.026Z,1.55
2023-03-19T17:36:23.813Z,1.33
2023-03-19T17:38:50.640Z,2.15
2023-03-19T17:41:19.956Z,1.10
2023-03-19T17:43:47.878Z,0.88
2023-03-19T17:46:23.562Z,0.60
2023-03-19T17:48:51.390Z,0.57
2023-03-19T17:51:18.999Z,0.55
2023-03-19T17:53:51.515Z,1.40
2023-03-19T17:56:21.413Z,1.65
2023-03-19T17:58:50.444Z,1.63
2023-03-19T18:01:23.517Z,1.70
2023-03-19T18:03:52.084Z,2.22
2023-03-19T18:06:21.090Z,2.00
2023-03-19T18:08:49.079Z,2.05
2023-03-19T18:11:16.292Z,1.45
2023-03-19T18:13:44.044Z,1.77
2023-03-19T18:16:25.722Z,0.75
2023-03-19T18:18:52.927Z,1.58
2023-03-19T18:21:19.777Z,1.33
2023-03-19T18:23:46.914Z,1.10
2023-03-19T18:26:14.287Z,0.60
2023-03-19T18:28:41.300Z,5.15
2023-03-19T18:31:23.030Z,1.60
2023-03-19T18:33:56.960Z,2.47
2023-03-19T18:36:27.995Z,2.13
2023-03-19T18:38:55.531Z,1.63
2023-03-19T18:41:24.747Z,1.48
2023-03-19T18:44:06.634Z,0.77
2023-03-19T18:46:39.097Z,1.73
2023-03-19T18:49:15.343Z,1.45
2023-03-19T18:51:58.765Z,1.13
2023-03-19T18:54:28.143Z,2.00
2023-03-19T18:56:57.285Z,2.10
2023-03-19T18:59:32.180Z,1.48
2023-03-19T19:02:00.952Z,0.45
2023-03-19T19:04:30.471Z,0.40
2023-03-19T19:06:57.341Z,1.30
2023-03-19T19:09:27.653Z,1.30
2023-03-19T19:12:01.013Z,1.50
2023-03-19T19:14:28.211Z,2.10
2023-03-19T19:16:59.177Z,5.13
2023-03-19T19:19:29.346Z,2.25
2023-03-19T19:21:56.349Z,1.25
2023-03-19T19:24:23.147Z,1.30
2023-03-19T19:26:54.129Z,1.20
2023-03-19T19:29:27.025Z,1.63
2023-03-19T19:31:54.517Z,1.60
2023-03-19T19:34:22.804Z,1.73
2023-03-19T19:36:51.091Z,2.35
2023-03-19T19:39:19.860Z,0.95
2023-03-19T19:41:48.187Z,1.45
2023-03-19T19:44:20.282Z,1.70
2023-03-19T19:46:47.271Z,1.67
2023-03-19T19:49:18.718Z,1.98
2023-03-19T19:51:45.562Z,2.33
2023-03-19T19:54:12.579Z,1.65
2023-03-19T19:56:40.683Z,1.83
2023-03-19T19:59:08.167Z,10.02
2023-03-19T20:01:35.234Z,1.38
2023-03-19T20:04:04.062Z,1.80
2023-03-19T20:06:31.023Z,1.65
2023-03-19T20:08:57.713Z,1.33
2023-03-19T20:11:25.641Z,0.98
2023-03-19T20:13:54.801Z,0.85
2023-03-19T20:16:24.077Z,2.08
2023-03-19T20:18:53.775Z,1.58
2023-03-19T20:23:53.470Z,3.20
2023-03-19T20:26:23.854Z,3.17
2023-03-19T20:28:51.571Z,7.60
2023-03-19T20:31:26.449Z,4.57
2023-03-19T20:33:53.200Z,9.52
2023-03-19T20:36:19.925Z,2.28
2023-03-19T20:38:46.639Z,1.88
2023-03-19T20:41:23.046Z,2.30
2023-03-19T20:43:50.913Z,3.95
2023-03-19T20:46:20.493Z,5.05
2023-03-19T20:48:48.384Z,6.20
2023-03-19T20:51:21.708Z,4.80
2023-03-19T20:53:52.496Z,4.28
2023-03-19T20:56:22.616Z,4.68
2023-03-19T20:58:49.657Z,5.15
2023-03-19T21:01:17.794Z,3.33
2023-03-19T21:03:44.726Z,5.10
2023-03-19T21:06:18.097Z,2.83
2023-03-19T21:08:49.172Z,2.60
2023-03-19T21:11:24.528Z,3.40
2023-03-19T21:13:53.148Z,2.92
2023-03-19T21:16:25.566Z,2.92
2023-03-19T21:18:53.992Z,2.50
2023-03-19T21:21:35.719Z,1.63
2023-03-19T21:24:13.295Z,1.25
2023-03-19T21:26:42.590Z,1.13
2023-03-19T21:29:19.414Z,1.13
2023-03-19T21:31:50.561Z,1.80
2023-03-19T21:34:17.887Z,1.75
2023-03-19T21:36:44.839Z,1.88
2023-03-19T21:39:12.022Z,1.58
2023-03-19T21:41:41.320Z,2.40
2023-03-19T21:44:16.279Z,2.10
2023-03-19T21:46:46.926Z,1.67
2023-03-19T21:49:14.657Z,2.25
2023-03-19T21:51:43.912Z,2.25
2023-03-19T21:54:11.431Z,2.20
2023-03-19T21:56:42.901Z,1.77
2023-03-19T21:59:18.942Z,1.42
2023-03-19T22:01:46.565Z,1.42
2023-03-19T22:04:13.335Z,1.90
2023-03-19T22:06:40.408Z,2.60
2023-03-19T22:09:07.461Z,3.38
2023-03-19T22:11:36.638Z,5.50
2023-03-19T22:14:11.188Z,5.35
2023-03-19T22:16:38.288Z,3.85
2023-03-19T22:19:05.597Z,2.70
2023-03-19T22:21:33.954Z,1.92
2023-03-19T22:24:00.757Z,1.98
2023-03-19T22:26:27.602Z,1.80
2023-03-19T22:28:56.083Z,1.98
2023-03-19T22:31:23.771Z,2.20
2023-03-19T22:33:50.745Z,1.67
2023-03-19T22:36:17.773Z,1.50
2023-03-19T22:38:45.028Z,1.55
2023-03-19T22:41:17.417Z,1.73
2023-03-19T22:43:46.367Z,2.50
2023-03-19T22:46:16.983Z,1.92
2023-03-19T22:48:47.900Z,2.13
2023-03-19T22:51:17.354Z,2.47
2023-03-19T22:53:44.656Z,1.88
2023-03-19T22:56:12.418Z,2.10
2023-03-19T22:58:39.036Z,1.13
2023-03-19T23:01:21.262Z,1.45
2023-03-19T23:03:50.156Z,1.67
2023-03-19T23:06:30.656Z,1.53
2023-03-19T23:08:57.923Z,1.17
2023-03-19T23:11:24.673Z,1.45
2023-03-19T23:13:51.818Z,1.73
2023-03-19T23:16:24.648Z,1.77
2023-03-19T23:18:51.956Z,2.22
2023-03-19T23:21:20.078Z,2.15
2023-03-19T23:23:46.885Z,1.50
2023-03-19T23:26:37.158Z,1.60
2023-03-19T23:29:06.114Z,1.75
2023-03-19T23:31:34.727Z,1.80
2023-03-19T23:34:01.630Z,1.70
2023-03-19T23:36:28.450Z,1.80
2023-03-19T23:38:56.487Z,1.95
2023-03-19T23:41:26.808Z,1.90
2023-03-19T23:43:54.922Z,2.10
2023-03-19T23:46:22.180Z,1.73
2023-03-19T23:48:53.236Z,1.70
2023-03-19T23:51:21.314Z,2.60
2023-03-19T23:53:48.292Z,2.30
2023-03-19T23:56:27.649Z,2.00
